sensor_id;sensor_type;location;lat;lon;timestamp;temperature;humidity
38902;DHT22;24661;53.566;9.910;2022-11-23T00:01:28;2.50;99.90
38902;DHT22;24661;53.566;9.910;2022-11-23T00:03:56;1.60;99.90
38902;DHT22;24661;53.566;9.910;2022-11-23T00:06:23;2.50;99.90
38902;DHT22;24661;53.566;9.910;2022-11-23T00:08:49;2.50;99.90
38902;DHT22;24661;53.566;9.910;2022-11-23T00:11:16;2.50;99.90
38902;DHT22;24661;53.566;9.910;2022-11-23T00:13:42;2.60;99.90
38902;DHT22;24661;53.566;9.910;2022-11-23T00:16:10;2.50;99.90
38902;DHT22;24661;53.566;9.910;2022-11-23T00:18:37;2.50;99.90
38902;DHT22;24661;53.566;9.910;2022-11-23T00:21:07;2.50;99.90
38902;DHT22;24661;53.566;9.910;2022-11-23T00:23:33;2.50;99.90
38902;DHT22;24661;53.566;9.910;2022-11-23T00:25:58;2.50;99.90
38902;DHT22;24661;53.566;9.910;2022-11-23T00:28:24;2.50;99.90
38902;DHT22;24661;53.566;9.910;2022-11-23T00:30:49;2.50;99.90
38902;DHT22;24661;53.566;9.910;2022-11-23T00:33:16;2.50;99.90
38902;DHT22;24661;53.566;9.910;2022-11-23T00:35:42;2.40;99.90
38902;DHT22;24661;53.566;9.910;2022-11-23T00:38:07;2.50;99.90
38902;DHT22;24661;53.566;9.910;2022-11-23T00:40:33;2.50;99.90
38902;DHT22;24661;53.566;9.910;2022-11-23T00:42:59;2.50;99.90
38902;DHT22;24661;53.566;9.910;2022-11-23T00:45:24;2.50;99.90
38902;DHT22;24661;53.566;9.910;2022-11-23T00:47:50;2.50;99.90
38902;DHT22;24661;53.566;9.910;2022-11-23T00:50:17;2.50;99.90
38902;DHT22;24661;53.566;9.910;2022-11-23T00:52:42;2.40;99.90
38902;DHT22;24661;53.566;9.910;2022-11-23T00:55:09;2.50;99.90
38902;DHT22;24661;53.566;9.910;2022-11-23T00:57:35;2.50;99.90
38902;DHT22;24661;53.566;9.910;2022-11-23T01:00:00;2.60;99.90
38902;DHT22;24661;53.566;9.910;2022-11-23T01:02:26;2.50;99.90
38902;DHT22;24661;53.566;9.910;2022-11-23T01:04:52;2.50;99.90
38902;DHT22;24661;53.566;9.910;2022-11-23T01:07:17;2.50;99.90
38902;DHT22;24661;53.566;9.910;2022-11-23T01:09:43;2.50;99.90
38902;DHT22;24661;53.566;9.910;2022-11-23T01:12:09;2.50;99.90
38902;DHT22;24661;53.566;9.910;2022-11-23T01:14:34;2.50;99.90
38902;DHT22;24661;53.566;9.910;2022-11-23T01:17:00;2.60;99.90
38902;DHT22;24661;53.566;9.910;2022-11-23T01:19:25;2.50;99.90
38902;DHT22;24661;53.566;9.910;2022-11-23T01:21:51;2.50;99.90
38902;DHT22;24661;53.566;9.910;2022-11-23T01:24:21;2.50;99.90
38902;DHT22;24661;53.566;9.910;2022-11-23T01:26:51;2.50;99.90
38902;DHT22;24661;53.566;9.910;2022-11-23T01:29:17;2.60;99.90
38902;DHT22;24661;53.566;9.910;2022-11-23T01:31:43;2.50;99.90
38902;DHT22;24661;53.566;9.910;2022-11-23T01:34:10;2.60;99.90
38902;DHT22;24661;53.566;9.910;2022-11-23T01:36:37;2.60;99.90
38902;DHT22;24661;53.566;9.910;2022-11-23T01:39:04;2.60;99.90
38902;DHT22;24661;53.566;9.910;2022-11-23T01:41:35;2.60;99.90
38902;DHT22;24661;53.566;9.910;2022-11-23T01:46:53;2.60;99.90
38902;DHT22;24661;53.566;9.910;2022-11-23T01:49:19;2.60;99.90
38902;DHT22;24661;53.566;9.910;2022-11-23T01:51:48;2.60;99.90
38902;DHT22;24661;53.566;9.910;2022-11-23T01:54:21;2.60;99.90
38902;DHT22;24661;53.566;9.910;2022-11-23T01:56:53;2.60;99.90
38902;DHT22;24661;53.566;9.910;2022-11-23T01:59:21;2.60;99.90
38902;DHT22;24661;53.566;9.910;2022-11-23T02:01:47;2.70;99.90
38902;DHT22;24661;53.566;9.910;2022-11-23T02:04:23;2.70;99.90
38902;DHT22;24661;53.566;9.910;2022-11-23T02:06:50;2.70;99.90
38902;DHT22;24661;53.566;9.910;2022-11-23T02:09:17;2.80;99.90
38902;DHT22;24661;53.566;9.910;2022-11-23T02:11:43;2.80;99.90
38902;DHT22;24661;53.566;9.910;2022-11-23T02:14:09;2.80;99.90
38902;DHT22;24661;53.566;9.910;2022-11-23T02:16:36;2.80;99.90
38902;DHT22;24661;53.566;9.910;2022-11-23T02:19:02;2.80;99.90
38902;DHT22;24661;53.566;9.910;2022-11-23T02:21:28;2.80;99.90
38902;DHT22;24661;53.566;9.910;2022-11-23T02:24:29;2.80;99.90
38902;DHT22;24661;53.566;9.910;2022-11-23T02:26:57;2.70;99.90
38902;DHT22;24661;53.566;9.910;2022-11-23T02:29:24;2.70;99.90
38902;DHT22;24661;53.566;9.910;2022-11-23T02:31:50;2.70;99.90
38902;DHT22;24661;53.566;9.910;2022-11-23T02:34:17;2.70;99.90
38902;DHT22;24661;53.566;9.910;2022-11-23T02:36:49;2.70;99.90
38902;DHT22;24661;53.566;9.910;2022-11-23T02:39:36;2.70;99.90
38902;DHT22;24661;53.566;9.910;2022-11-23T02:42:03;2.60;99.90
38902;DHT22;24661;53.566;9.910;2022-11-23T02:47:29;2.70;99.90
38902;DHT22;24661;53.566;9.910;2022-11-23T02:49:55;2.70;99.90
38902;DHT22;24661;53.566;9.910;2022-11-23T02:52:21;2.70;99.90
38902;DHT22;24661;53.566;9.910;2022-11-23T02:54:47;2.70;99.90
38902;DHT22;24661;53.566;9.910;2022-11-23T02:57:13;2.70;99.90
38902;DHT22;24661;53.566;9.910;2022-11-23T02:59:38;2.80;99.90
38902;DHT22;24661;53.566;9.910;2022-11-23T03:02:04;2.80;99.90
38902;DHT22;24661;53.566;9.910;2022-11-23T03:04:30;2.80;99.90
38902;DHT22;24661;53.566;9.910;2022-11-23T03:06:56;2.90;99.90
38902;DHT22;24661;53.566;9.910;2022-11-23T03:09:22;2.90;99.90
38902;DHT22;24661;53.566;9.910;2022-11-23T03:11:47;2.90;99.90
38902;DHT22;24661;53.566;9.910;2022-11-23T03:14:13;2.90;99.90
38902;DHT22;24661;53.566;9.910;2022-11-23T03:16:38;2.90;99.90
38902;DHT22;24661;53.566;9.910;2022-11-23T03:19:04;3.00;99.90
38902;DHT22;24661;53.566;9.910;2022-11-23T03:21:30;3.00;99.90
38902;DHT22;24661;53.566;9.910;2022-11-23T03:23:55;3.10;99.90
38902;DHT22;24661;53.566;9.910;2022-11-23T03:26:22;3.10;99.90
38902;DHT22;24661;53.566;9.910;2022-11-23T03:28:48;3.10;99.90
38902;DHT22;24661;53.566;9.910;2022-11-23T03:31:13;3.10;99.90
38902;DHT22;24661;53.566;9.910;2022-11-23T03:33:39;3.10;99.90
38902;DHT22;24661;53.566;9.910;2022-11-23T03:36:05;3.20;99.90
38902;DHT22;24661;53.566;9.910;2022-11-23T03:38:30;3.20;99.90
38902;DHT22;24661;53.566;9.910;2022-11-23T03:40:56;3.20;99.90
38902;DHT22;24661;53.566;9.910;2022-11-23T03:43:21;3.20;99.90
38902;DHT22;24661;53.566;9.910;2022-11-23T03:45:47;3.10;99.90
38902;DHT22;24661;53.566;9.910;2022-11-23T03:48:13;3.20;99.90
38902;DHT22;24661;53.566;9.910;2022-11-23T03:50:38;3.20;99.90
38902;DHT22;24661;53.566;9.910;2022-11-23T03:53:04;3.20;99.90
38902;DHT22;24661;53.566;9.910;2022-11-23T03:55:31;3.30;99.90
38902;DHT22;24661;53.566;9.910;2022-11-23T03:57:57;3.30;99.90
38902;DHT22;24661;53.566;9.910;2022-11-23T04:00:29;3.30;99.90
38902;DHT22;24661;53.566;9.910;2022-11-23T04:02:55;3.30;99.90
38902;DHT22;24661;53.566;9.910;2022-11-23T04:05:22;3.30;99.90
38902;DHT22;24661;53.566;9.910;2022-11-23T04:07:48;3.30;99.90
38902;DHT22;24661;53.566;9.910;2022-11-23T04:10:18;3.30;99.90
38902;DHT22;24661;53.566;9.910;2022-11-23T04:12:44;3.30;99.90
38902;DHT22;24661;53.566;9.910;2022-11-23T04:15:10;3.30;99.90
38902;DHT22;24661;53.566;9.910;2022-11-23T04:17:35;3.40;99.90
38902;DHT22;24661;53.566;9.910;2022-11-23T04:20:01;3.40;99.90
38902;DHT22;24661;53.566;9.910;2022-11-23T04:22:27;3.40;99.90
38902;DHT22;24661;53.566;9.910;2022-11-23T04:24:52;3.40;99.90
38902;DHT22;24661;53.566;9.910;2022-11-23T04:27:18;3.30;99.90
38902;DHT22;24661;53.566;9.910;2022-11-23T04:29:43;3.30;99.90
38902;DHT22;24661;53.566;9.910;2022-11-23T04:32:09;3.40;99.90
38902;DHT22;24661;53.566;9.910;2022-11-23T04:34:34;3.40;99.90
38902;DHT22;24661;53.566;9.910;2022-11-23T04:37:00;3.40;99.90
38902;DHT22;24661;53.566;9.910;2022-11-23T04:39:26;3.40;99.90
38902;DHT22;24661;53.566;9.910;2022-11-23T04:41:51;3.40;99.90
38902;DHT22;24661;53.566;9.910;2022-11-23T04:44:17;3.40;99.90
38902;DHT22;24661;53.566;9.910;2022-11-23T04:46:45;3.40;99.90
38902;DHT22;24661;53.566;9.910;2022-11-23T04:49:11;3.40;99.90
38902;DHT22;24661;53.566;9.910;2022-11-23T04:51:36;3.40;99.90
38902;DHT22;24661;53.566;9.910;2022-11-23T04:54:02;3.40;99.90
38902;DHT22;24661;53.566;9.910;2022-11-23T04:56:28;3.40;99.90
38902;DHT22;24661;53.566;9.910;2022-11-23T04:58:53;3.40;99.90
38902;DHT22;24661;53.566;9.910;2022-11-23T05:01:19;3.40;99.90
38902;DHT22;24661;53.566;9.910;2022-11-23T05:03:44;3.50;99.90
38902;DHT22;24661;53.566;9.910;2022-11-23T05:06:10;5.00;99.90
38902;DHT22;24661;53.566;9.910;2022-11-23T05:08:36;3.40;99.90
38902;DHT22;24661;53.566;9.910;2022-11-23T05:11:02;3.30;99.90
38902;DHT22;24661;53.566;9.910;2022-11-23T05:13:28;3.40;99.90
38902;DHT22;24661;53.566;9.910;2022-11-23T05:15:53;3.30;99.90
38902;DHT22;24661;53.566;9.910;2022-11-23T05:18:19;3.30;99.90
38902;DHT22;24661;53.566;9.910;2022-11-23T05:20:45;3.30;99.90
38902;DHT22;24661;53.566;9.910;2022-11-23T05:23:11;3.30;99.90
38902;DHT22;24661;53.566;9.910;2022-11-23T05:25:37;3.40;99.90
38902;DHT22;24661;53.566;9.910;2022-11-23T05:28:03;3.40;99.90
38902;DHT22;24661;53.566;9.910;2022-11-23T05:30:29;3.40;99.90
38902;DHT22;24661;53.566;9.910;2022-11-23T05:33:02;3.40;99.90
38902;DHT22;24661;53.566;9.910;2022-11-23T05:35:28;3.40;99.90
38902;DHT22;24661;53.566;9.910;2022-11-23T05:37:54;3.40;99.90
38902;DHT22;24661;53.566;9.910;2022-11-23T05:40:20;3.40;99.90
38902;DHT22;24661;53.566;9.910;2022-11-23T05:42:46;3.50;99.90
38902;DHT22;24661;53.566;9.910;2022-11-23T05:45:12;3.60;99.90
38902;DHT22;24661;53.566;9.910;2022-11-23T05:47:38;3.60;99.90
38902;DHT22;24661;53.566;9.910;2022-11-23T05:50:04;3.60;99.90
38902;DHT22;24661;53.566;9.910;2022-11-23T05:52:30;3.60;99.90
38902;DHT22;24661;53.566;9.910;2022-11-23T05:54:55;3.60;99.90
38902;DHT22;24661;53.566;9.910;2022-11-23T05:57:21;3.70;99.90
38902;DHT22;24661;53.566;9.910;2022-11-23T05:59:47;3.70;99.90
38902;DHT22;24661;53.566;9.910;2022-11-23T06:02:13;3.70;99.90
38902;DHT22;24661;53.566;9.910;2022-11-23T06:04:38;3.70;99.90
38902;DHT22;24661;53.566;9.910;2022-11-23T06:07:04;3.80;99.90
38902;DHT22;24661;53.566;9.910;2022-11-23T06:09:31;3.80;99.90
38902;DHT22;24661;53.566;9.910;2022-11-23T06:11:56;3.70;99.90
38902;DHT22;24661;53.566;9.910;2022-11-23T06:14:22;3.70;99.90
38902;DHT22;24661;53.566;9.910;2022-11-23T06:16:47;3.60;99.90
38902;DHT22;24661;53.566;9.910;2022-11-23T06:19:13;3.70;99.90
38902;DHT22;24661;53.566;9.910;2022-11-23T06:21:39;3.70;99.90
38902;DHT22;24661;53.566;9.910;2022-11-23T06:24:06;3.70;99.90
38902;DHT22;24661;53.566;9.910;2022-11-23T06:26:31;3.70;99.90
38902;DHT22;24661;53.566;9.910;2022-11-23T06:28:57;3.80;99.90
38902;DHT22;24661;53.566;9.910;2022-11-23T06:31:23;3.70;99.90
38902;DHT22;24661;53.566;9.910;2022-11-23T06:33:48;3.80;99.90
38902;DHT22;24661;53.566;9.910;2022-11-23T06:36:16;3.90;99.90
38902;DHT22;24661;53.566;9.910;2022-11-23T06:38:41;2.40;99.90
38902;DHT22;24661;53.566;9.910;2022-11-23T06:41:07;3.80;99.90
38902;DHT22;24661;53.566;9.910;2022-11-23T06:43:33;3.80;99.90
38902;DHT22;24661;53.566;9.910;2022-11-23T06:46:02;3.80;99.90
38902;DHT22;24661;53.566;9.910;2022-11-23T06:48:28;3.80;99.90
38902;DHT22;24661;53.566;9.910;2022-11-23T06:50:57;5.00;99.90
38902;DHT22;24661;53.566;9.910;2022-11-23T06:53:23;3.90;99.90
38902;DHT22;24661;53.566;9.910;2022-11-23T06:55:49;3.90;99.90
38902;DHT22;24661;53.566;9.910;2022-11-23T06:58:14;3.90;99.90
38902;DHT22;24661;53.566;9.910;2022-11-23T07:00:40;3.90;99.90
38902;DHT22;24661;53.566;9.910;2022-11-23T07:03:05;3.90;99.90
38902;DHT22;24661;53.566;9.910;2022-11-23T07:05:32;3.90;99.90
38902;DHT22;24661;53.566;9.910;2022-11-23T07:07:57;4.00;99.90
38902;DHT22;24661;53.566;9.910;2022-11-23T07:10:23;4.10;99.90
38902;DHT22;24661;53.566;9.910;2022-11-23T07:12:50;4.10;99.90
38902;DHT22;24661;53.566;9.910;2022-11-23T07:15:15;4.10;99.90
38902;DHT22;24661;53.566;9.910;2022-11-23T07:17:42;4.10;99.90
38902;DHT22;24661;53.566;9.910;2022-11-23T07:20:10;4.10;99.90
38902;DHT22;24661;53.566;9.910;2022-11-23T07:22:36;4.10;99.90
38902;DHT22;24661;53.566;9.910;2022-11-23T07:25:02;4.10;99.90
38902;DHT22;24661;53.566;9.910;2022-11-23T07:27:28;4.10;99.90
38902;DHT22;24661;53.566;9.910;2022-11-23T07:29:53;4.00;99.90
38902;DHT22;24661;53.566;9.910;2022-11-23T07:32:19;4.10;99.90
38902;DHT22;24661;53.566;9.910;2022-11-23T07:34:45;4.10;99.90
38902;DHT22;24661;53.566;9.910;2022-11-23T07:37:10;4.10;99.90
38902;DHT22;24661;53.566;9.910;2022-11-23T07:39:36;4.20;99.90
38902;DHT22;24661;53.566;9.910;2022-11-23T07:42:01;4.20;99.90
38902;DHT22;24661;53.566;9.910;2022-11-23T07:44:27;4.10;99.90
38902;DHT22;24661;53.566;9.910;2022-11-23T07:46:52;4.10;99.90
38902;DHT22;24661;53.566;9.910;2022-11-23T07:49:19;4.10;99.90
38902;DHT22;24661;53.566;9.910;2022-11-23T07:51:45;4.20;99.90
38902;DHT22;24661;53.566;9.910;2022-11-23T07:54:10;4.20;99.90
38902;DHT22;24661;53.566;9.910;2022-11-23T07:56:36;4.20;99.90
38902;DHT22;24661;53.566;9.910;2022-11-23T07:59:02;4.20;99.90
38902;DHT22;24661;53.566;9.910;2022-11-23T08:01:27;4.20;99.90
38902;DHT22;24661;53.566;9.910;2022-11-23T08:03:53;4.20;99.90
38902;DHT22;24661;53.566;9.910;2022-11-23T08:06:19;4.20;99.90
38902;DHT22;24661;53.566;9.910;2022-11-23T08:08:44;4.30;99.90
38902;DHT22;24661;53.566;9.910;2022-11-23T08:11:10;4.30;99.90
38902;DHT22;24661;53.566;9.910;2022-11-23T08:13:39;4.40;99.90
38902;DHT22;24661;53.566;9.910;2022-11-23T08:16:05;4.40;99.90
38902;DHT22;24661;53.566;9.910;2022-11-23T08:18:30;4.50;99.90
38902;DHT22;24661;53.566;9.910;2022-11-23T08:20:58;4.50;99.90
38902;DHT22;24661;53.566;9.910;2022-11-23T08:23:27;4.60;99.90
38902;DHT22;24661;53.566;9.910;2022-11-23T08:25:55;4.60;99.90
38902;DHT22;24661;53.566;9.910;2022-11-23T08:28:21;4.70;99.90
38902;DHT22;24661;53.566;9.910;2022-11-23T08:30:47;4.70;99.90
38902;DHT22;24661;53.566;9.910;2022-11-23T08:33:14;4.70;99.90
38902;DHT22;24661;53.566;9.910;2022-11-23T08:35:41;4.80;99.90
38902;DHT22;24661;53.566;9.910;2022-11-23T08:38:08;4.90;99.90
38902;DHT22;24661;53.566;9.910;2022-11-23T08:40:35;4.80;99.90
38902;DHT22;24661;53.566;9.910;2022-11-23T08:43:01;4.90;99.90
38902;DHT22;24661;53.566;9.910;2022-11-23T08:45:27;4.90;99.90
38902;DHT22;24661;53.566;9.910;2022-11-23T08:47:59;4.90;99.90
38902;DHT22;24661;53.566;9.910;2022-11-23T08:50:25;5.00;99.90
38902;DHT22;24661;53.566;9.910;2022-11-23T08:52:58;5.00;99.90
38902;DHT22;24661;53.566;9.910;2022-11-23T08:55:25;5.10;99.90
38902;DHT22;24661;53.566;9.910;2022-11-23T08:57:54;5.10;99.90
38902;DHT22;24661;53.566;9.910;2022-11-23T09:00:20;5.20;99.90
38902;DHT22;24661;53.566;9.910;2022-11-23T09:02:45;5.30;99.90
38902;DHT22;24661;53.566;9.910;2022-11-23T09:05:11;5.40;99.90
38902;DHT22;24661;53.566;9.910;2022-11-23T09:07:37;5.40;99.90
38902;DHT22;24661;53.566;9.910;2022-11-23T09:10:03;5.50;99.90
38902;DHT22;24661;53.566;9.910;2022-11-23T09:12:29;5.50;99.90
38902;DHT22;24661;53.566;9.910;2022-11-23T09:14:55;5.60;99.90
38902;DHT22;24661;53.566;9.910;2022-11-23T09:17:22;5.70;99.90
38902;DHT22;24661;53.566;9.910;2022-11-23T09:19:48;5.70;99.90
38902;DHT22;24661;53.566;9.910;2022-11-23T09:22:14;5.80;99.90
38902;DHT22;24661;53.566;9.910;2022-11-23T09:24:40;5.80;99.90
38902;DHT22;24661;53.566;9.910;2022-11-23T09:27:06;5.90;99.90
38902;DHT22;24661;53.566;9.910;2022-11-23T09:29:31;6.00;99.90
38902;DHT22;24661;53.566;9.910;2022-11-23T09:31:57;6.10;99.90
38902;DHT22;24661;53.566;9.910;2022-11-23T09:34:22;6.10;99.90
38902;DHT22;24661;53.566;9.910;2022-11-23T09:36:48;6.00;99.90
38902;DHT22;24661;53.566;9.910;2022-11-23T09:39:13;6.10;99.90
38902;DHT22;24661;53.566;9.910;2022-11-23T09:41:58;6.10;99.90
38902;DHT22;24661;53.566;9.910;2022-11-23T09:50:11;6.20;99.90
38902;DHT22;24661;53.566;9.910;2022-11-23T09:52:42;6.10;99.90
38902;DHT22;24661;53.566;9.910;2022-11-23T09:57:45;6.00;99.90
38902;DHT22;24661;53.566;9.910;2022-11-23T10:00:19;6.00;99.90
38902;DHT22;24661;53.566;9.910;2022-11-23T10:02:45;6.00;99.90
38902;DHT22;24661;53.566;9.910;2022-11-23T10:05:17;6.00;99.90
38902;DHT22;24661;53.566;9.910;2022-11-23T10:21:44;6.90;99.90
38902;DHT22;24661;53.566;9.910;2022-11-23T10:24:21;7.00;99.90
38902;DHT22;24661;53.566;9.910;2022-11-23T10:26:49;7.10;99.90
38902;DHT22;24661;53.566;9.910;2022-11-23T10:29:32;7.10;99.90
38902;DHT22;24661;53.566;9.910;2022-11-23T10:31:59;7.10;99.90
38902;DHT22;24661;53.566;9.910;2022-11-23T10:37:21;7.20;99.90
38902;DHT22;24661;53.566;9.910;2022-11-23T10:39:47;7.20;99.90
38902;DHT22;24661;53.566;9.910;2022-11-23T10:42:40;7.20;99.90
38902;DHT22;24661;53.566;9.910;2022-11-23T10:45:18;7.10;99.90
38902;DHT22;24661;53.566;9.910;2022-11-23T10:50:30;7.30;99.90
38902;DHT22;24661;53.566;9.910;2022-11-23T10:53:22;7.30;99.90
38902;DHT22;24661;53.566;9.910;2022-11-23T10:55:56;7.40;99.90
38902;DHT22;24661;53.566;9.910;2022-11-23T10:58:41;7.40;99.90
38902;DHT22;24661;53.566;9.910;2022-11-23T11:03:37;7.60;99.90
38902;DHT22;24661;53.566;9.910;2022-11-23T11:06:03;7.60;99.90
38902;DHT22;24661;53.566;9.910;2022-11-23T11:08:30;7.60;99.90
38902;DHT22;24661;53.566;9.910;2022-11-23T11:11:30;7.70;99.90
38902;DHT22;24661;53.566;9.910;2022-11-23T11:14:13;7.80;99.90
38902;DHT22;24661;53.566;9.910;2022-11-23T11:17:00;7.70;99.90
38902;DHT22;24661;53.566;9.910;2022-11-23T11:19:31;7.80;99.90
38902;DHT22;24661;53.566;9.910;2022-11-23T11:21:59;7.80;99.90
38902;DHT22;24661;53.566;9.910;2022-11-23T11:24:41;7.90;99.90
38902;DHT22;24661;53.566;9.910;2022-11-23T11:27:20;7.80;99.90
38902;DHT22;24661;53.566;9.910;2022-11-23T11:29:52;7.80;99.90
38902;DHT22;24661;53.566;9.910;2022-11-23T11:34:53;7.70;99.90
38902;DHT22;24661;53.566;9.910;2022-11-23T11:37:39;7.80;99.90
38902;DHT22;24661;53.566;9.910;2022-11-23T11:40:36;7.80;99.90
38902;DHT22;24661;53.566;9.910;2022-11-23T11:43:17;7.80;99.90
38902;DHT22;24661;53.566;9.910;2022-11-23T11:45:47;7.80;99.90
38902;DHT22;24661;53.566;9.910;2022-11-23T11:48:29;7.80;99.90
38902;DHT22;24661;53.566;9.910;2022-11-23T11:51:19;7.80;99.90
38902;DHT22;24661;53.566;9.910;2022-11-23T11:54:02;7.80;99.90
38902;DHT22;24661;53.566;9.910;2022-11-23T11:56:35;7.80;99.90
38902;DHT22;24661;53.566;9.910;2022-11-23T12:01:47;7.70;99.90
38902;DHT22;24661;53.566;9.910;2022-11-23T12:04:42;7.80;99.90
38902;DHT22;24661;53.566;9.910;2022-11-23T12:07:19;7.80;99.90
38902;DHT22;24661;53.566;9.910;2022-11-23T12:09:50;7.90;99.90
38902;DHT22;24661;53.566;9.910;2022-11-23T12:12:19;8.00;99.90
38902;DHT22;24661;53.566;9.910;2022-11-23T12:14:46;8.00;99.90
38902;DHT22;24661;53.566;9.910;2022-11-23T12:25:56;8.10;99.90
38902;DHT22;24661;53.566;9.910;2022-11-23T12:29:08;8.20;99.90
38902;DHT22;24661;53.566;9.910;2022-11-23T12:31:49;8.20;99.90
38902;DHT22;24661;53.566;9.910;2022-11-23T12:34:39;8.30;99.90
38902;DHT22;24661;53.566;9.910;2022-11-23T12:40:05;8.30;99.90
38902;DHT22;24661;53.566;9.910;2022-11-23T12:42:47;8.30;99.90
38902;DHT22;24661;53.566;9.910;2022-11-23T12:50:29;8.40;99.90
38902;DHT22;24661;53.566;9.910;2022-11-23T12:53:11;8.40;99.90
38902;DHT22;24661;53.566;9.910;2022-11-23T12:56:06;8.40;99.90
38902;DHT22;24661;53.566;9.910;2022-11-23T12:58:35;8.40;99.90
38902;DHT22;24661;53.566;9.910;2022-11-23T13:10:08;8.50;99.90
38902;DHT22;24661;53.566;9.910;2022-11-23T13:23:36;8.60;99.90
38902;DHT22;24661;53.566;9.910;2022-11-23T13:28:40;8.60;99.90
38902;DHT22;24661;53.566;9.910;2022-11-23T13:33:42;8.60;99.90
38902;DHT22;24661;53.566;9.910;2022-11-23T13:36:10;8.60;99.90
38902;DHT22;24661;53.566;9.910;2022-11-23T13:38:41;8.60;99.90
38902;DHT22;24661;53.566;9.910;2022-11-23T13:44:22;8.60;99.90
38902;DHT22;24661;53.566;9.910;2022-11-23T13:49:39;8.60;99.90
38902;DHT22;24661;53.566;9.910;2022-11-23T13:55:05;8.60;99.90
38902;DHT22;24661;53.566;9.910;2022-11-23T13:57:32;8.60;99.90
38902;DHT22;24661;53.566;9.910;2022-11-23T14:06:44;8.60;99.90
38902;DHT22;24661;53.566;9.910;2022-11-23T14:20:16;8.30;99.90
38902;DHT22;24661;53.566;9.910;2022-11-23T14:37:38;8.30;99.90
38902;DHT22;24661;53.566;9.910;2022-11-23T14:42:57;8.30;99.90
38902;DHT22;24661;53.566;9.910;2022-11-23T14:45:29;8.30;99.90
38902;DHT22;24661;53.566;9.910;2022-11-23T14:47:55;8.20;99.90
38902;DHT22;24661;53.566;9.910;2022-11-23T14:50:23;8.20;99.90
38902;DHT22;24661;53.566;9.910;2022-11-23T14:52:50;8.10;99.90
38902;DHT22;24661;53.566;9.910;2022-11-23T14:55:21;8.10;99.90
38902;DHT22;24661;53.566;9.910;2022-11-23T14:57:47;8.00;99.90
38902;DHT22;24661;53.566;9.910;2022-11-23T15:00:38;7.90;99.90
38902;DHT22;24661;53.566;9.910;2022-11-23T15:03:11;7.90;99.90
38902;DHT22;24661;53.566;9.910;2022-11-23T15:05:43;7.80;99.90
38902;DHT22;24661;53.566;9.910;2022-11-23T15:08:23;7.80;99.90
38902;DHT22;24661;53.566;9.910;2022-11-23T15:11:04;7.80;99.90
38902;DHT22;24661;53.566;9.910;2022-11-23T15:13:41;7.70;99.90
38902;DHT22;24661;53.566;9.910;2022-11-23T15:16:12;7.70;99.90
38902;DHT22;24661;53.566;9.910;2022-11-23T15:18:39;7.70;99.90
38902;DHT22;24661;53.566;9.910;2022-11-23T15:24:17;7.50;99.90
38902;DHT22;24661;53.566;9.910;2022-11-23T15:26:40;7.50;99.90
38902;DHT22;24661;53.566;9.910;2022-11-23T15:29:27;7.40;99.90
38902;DHT22;24661;53.566;9.910;2022-11-23T15:31:53;7.30;99.90
38902;DHT22;24661;53.566;9.910;2022-11-23T15:34:22;7.30;99.90
38902;DHT22;24661;53.566;9.910;2022-11-23T15:36:49;7.20;99.90
38902;DHT22;24661;53.566;9.910;2022-11-23T15:39:20;7.20;99.90
38902;DHT22;24661;53.566;9.910;2022-11-23T15:41:48;7.20;99.90
38902;DHT22;24661;53.566;9.910;2022-11-23T15:44:15;7.10;99.90
38902;DHT22;24661;53.566;9.910;2022-11-23T15:46:44;7.00;99.90
38902;DHT22;24661;53.566;9.910;2022-11-23T15:49:13;7.00;99.90
38902;DHT22;24661;53.566;9.910;2022-11-23T15:51:43;6.90;99.90
38902;DHT22;24661;53.566;9.910;2022-11-23T15:54:25;6.90;99.90
38902;DHT22;24661;53.566;9.910;2022-11-23T15:56:54;6.80;99.90
38902;DHT22;24661;53.566;9.910;2022-11-23T15:59:42;6.80;99.90
38902;DHT22;24661;53.566;9.910;2022-11-23T16:02:18;6.80;99.90
38902;DHT22;24661;53.566;9.910;2022-11-23T16:04:45;6.70;99.90
38902;DHT22;24661;53.566;9.910;2022-11-23T16:07:29;6.70;99.90
38902;DHT22;24661;53.566;9.910;2022-11-23T16:12:54;6.70;99.90
38902;DHT22;24661;53.566;9.910;2022-11-23T16:18:21;6.60;99.90
38902;DHT22;24661;53.566;9.910;2022-11-23T16:20:58;6.60;99.90
38902;DHT22;24661;53.566;9.910;2022-11-23T16:26:07;6.50;99.90
38902;DHT22;24661;53.566;9.910;2022-11-23T16:28:37;6.50;99.90
38902;DHT22;24661;53.566;9.910;2022-11-23T16:31:03;6.40;99.90
38902;DHT22;24661;53.566;9.910;2022-11-23T16:33:29;6.40;99.90
38902;DHT22;24661;53.566;9.910;2022-11-23T16:35:56;6.50;99.90
38902;DHT22;24661;53.566;9.910;2022-11-23T16:38:22;6.30;99.90
38902;DHT22;24661;53.566;9.910;2022-11-23T16:40:50;6.30;99.90
38902;DHT22;24661;53.566;9.910;2022-11-23T16:43:16;6.30;99.90
38902;DHT22;24661;53.566;9.910;2022-11-23T16:45:44;6.20;99.90
38902;DHT22;24661;53.566;9.910;2022-11-23T16:50:50;6.20;99.90
38902;DHT22;24661;53.566;9.910;2022-11-23T16:53:18;6.10;99.90
38902;DHT22;24661;53.566;9.910;2022-11-23T16:55:54;6.20;99.90
38902;DHT22;24661;53.566;9.910;2022-11-23T16:58:21;6.10;99.90
38902;DHT22;24661;53.566;9.910;2022-11-23T17:00:47;6.10;99.90
38902;DHT22;24661;53.566;9.910;2022-11-23T17:03:15;6.10;99.90
38902;DHT22;24661;53.566;9.910;2022-11-23T17:05:41;6.10;99.90
38902;DHT22;24661;53.566;9.910;2022-11-23T17:08:07;6.00;99.90
38902;DHT22;24661;53.566;9.910;2022-11-23T17:10:33;6.00;99.90
38902;DHT22;24661;53.566;9.910;2022-11-23T17:13:00;6.00;99.90
38902;DHT22;24661;53.566;9.910;2022-11-23T17:15:26;6.00;99.90
38902;DHT22;24661;53.566;9.910;2022-11-23T17:17:51;6.00;99.90
38902;DHT22;24661;53.566;9.910;2022-11-23T17:20:17;6.00;99.90
38902;DHT22;24661;53.566;9.910;2022-11-23T17:22:43;6.00;99.90
38902;DHT22;24661;53.566;9.910;2022-11-23T17:25:11;5.90;99.90
38902;DHT22;24661;53.566;9.910;2022-11-23T17:27:39;5.90;99.90
38902;DHT22;24661;53.566;9.910;2022-11-23T17:30:12;5.90;99.90
38902;DHT22;24661;53.566;9.910;2022-11-23T17:32:38;5.90;99.90
38902;DHT22;24661;53.566;9.910;2022-11-23T17:35:03;5.90;99.90
38902;DHT22;24661;53.566;9.910;2022-11-23T17:37:32;5.90;99.90
38902;DHT22;24661;53.566;9.910;2022-11-23T17:39:58;5.80;99.90
38902;DHT22;24661;53.566;9.910;2022-11-23T17:42:24;5.80;99.90
38902;DHT22;24661;53.566;9.910;2022-11-23T17:44:51;5.80;99.90
38902;DHT22;24661;53.566;9.910;2022-11-23T17:47:23;5.80;99.90
38902;DHT22;24661;53.566;9.910;2022-11-23T17:49:49;5.80;99.90
38902;DHT22;24661;53.566;9.910;2022-11-23T17:52:15;5.80;99.90
38902;DHT22;24661;53.566;9.910;2022-11-23T17:54:41;5.80;99.90
38902;DHT22;24661;53.566;9.910;2022-11-23T17:57:12;5.70;99.90
38902;DHT22;24661;53.566;9.910;2022-11-23T17:59:38;5.70;99.90
38902;DHT22;24661;53.566;9.910;2022-11-23T18:02:04;5.70;99.90
38902;DHT22;24661;53.566;9.910;2022-11-23T18:04:29;5.70;99.90
38902;DHT22;24661;53.566;9.910;2022-11-23T18:06:55;5.60;99.90
38902;DHT22;24661;53.566;9.910;2022-11-23T18:09:21;5.60;99.90
38902;DHT22;24661;53.566;9.910;2022-11-23T18:11:46;5.60;99.90
38902;DHT22;24661;53.566;9.910;2022-11-23T18:14:12;5.50;99.90
38902;DHT22;24661;53.566;9.910;2022-11-23T18:16:38;7.40;99.90